sensor_id;sensor_type;location;lat;lon;timestamp;P1;durP1;ratioP1;P2;durP2;ratioP2
59930;SDS011;45790;51.538;6.736;2022-10-18T00:01:51;4.35;;;1.90;;
59930;SDS011;45790;51.538;6.736;2022-10-18T00:04:16;2.88;;;1.60;;
59930;SDS011;45790;51.538;6.736;2022-10-18T00:06:42;2.40;;;1.52;;
59930;SDS011;45790;51.538;6.736;2022-10-18T00:09:10;2.85;;;1.77;;
59930;SDS011;45790;51.538;6.736;2022-10-18T00:11:35;2.80;;;1.52;;
59930;SDS011;45790;51.538;6.736;2022-10-18T00:14:02;3.85;;;1.77;;
59930;SDS011;45790;51.538;6.736;2022-10-18T00:16:30;3.97;;;1.75;;
59930;SDS011;45790;51.538;6.736;2022-10-18T00:18:56;3.97;;;1.65;;
59930;SDS011;45790;51.538;6.736;2022-10-18T00:21:22;2.83;;;1.52;;
59930;SDS011;45790;51.538;6.736;2022-10-18T00:23:49;2.38;;;1.80;;
59930;SDS011;45790;51.538;6.736;2022-10-18T00:26:26;3.90;;;1.88;;
59930;SDS011;45790;51.538;6.736;2022-10-18T00:28:53;4.72;;;1.65;;
59930;SDS011;45790;51.538;6.736;2022-10-18T00:31:36;2.90;;;1.48;;
59930;SDS011;45790;51.538;6.736;2022-10-18T00:34:02;6.05;;;1.88;;
59930;SDS011;45790;51.538;6.736;2022-10-18T00:36:32;4.35;;;1.80;;
59930;SDS011;45790;51.538;6.736;2022-10-18T00:39:02;3.00;;;1.60;;
59930;SDS011;45790;51.538;6.736;2022-10-18T00:41:30;3.95;;;1.88;;
59930;SDS011;45790;51.538;6.736;2022-10-18T00:46:50;3.92;;;2.05;;
59930;SDS011;45790;51.538;6.736;2022-10-18T00:49:27;4.25;;;1.80;;
59930;SDS011;45790;51.538;6.736;2022-10-18T00:51:56;3.08;;;1.80;;
59930;SDS011;45790;51.538;6.736;2022-10-18T00:54:24;4.05;;;1.90;;
59930;SDS011;45790;51.538;6.736;2022-10-18T00:56:50;3.78;;;1.90;;
59930;SDS011;45790;51.538;6.736;2022-10-18T00:59:16;3.25;;;1.83;;
59930;SDS011;45790;51.538;6.736;2022-10-18T01:01:45;3.08;;;1.90;;
59930;SDS011;45790;51.538;6.736;2022-10-18T01:04:11;3.22;;;1.80;;
59930;SDS011;45790;51.538;6.736;2022-10-18T01:06:45;4.53;;;2.35;;
59930;SDS011;45790;51.538;6.736;2022-10-18T01:09:34;4.72;;;2.10;;
59930;SDS011;45790;51.538;6.736;2022-10-18T01:23:06;3.63;;;1.80;;
59930;SDS011;45790;51.538;6.736;2022-10-18T01:31:38;8.77;;;3.22;;
59930;SDS011;45790;51.538;6.736;2022-10-18T01:34:08;4.82;;;1.90;;
59930;SDS011;45790;51.538;6.736;2022-10-18T01:36:35;3.55;;;1.70;;
59930;SDS011;45790;51.538;6.736;2022-10-18T01:39:08;3.45;;;1.95;;
59930;SDS011;45790;51.538;6.736;2022-10-18T01:41:37;5.50;;;2.22;;
59930;SDS011;45790;51.538;6.736;2022-10-18T01:44:06;3.53;;;1.80;;
59930;SDS011;45790;51.538;6.736;2022-10-18T01:46:34;5.93;;;2.47;;
59930;SDS011;45790;51.538;6.736;2022-10-18T01:49:01;4.07;;;2.50;;
59930;SDS011;45790;51.538;6.736;2022-10-18T01:51:27;3.00;;;1.77;;
59930;SDS011;45790;51.538;6.736;2022-10-18T01:53:54;4.40;;;2.35;;
59930;SDS011;45790;51.538;6.736;2022-10-18T01:59:45;4.93;;;2.15;;
59930;SDS011;45790;51.538;6.736;2022-10-18T02:05:08;4.10;;;1.83;;
59930;SDS011;45790;51.538;6.736;2022-10-18T02:10:27;4.45;;;2.25;;
59930;SDS011;45790;51.538;6.736;2022-10-18T02:12:56;2.92;;;1.80;;
59930;SDS011;45790;51.538;6.736;2022-10-18T02:15:28;6.40;;;2.10;;
59930;SDS011;45790;51.538;6.736;2022-10-18T02:17:57;5.03;;;2.17;;
59930;SDS011;45790;51.538;6.736;2022-10-18T02:20:25;4.57;;;1.80;;
59930;SDS011;45790;51.538;6.736;2022-10-18T02:22:53;3.42;;;1.90;;
59930;SDS011;45790;51.538;6.736;2022-10-18T02:25:23;2.60;;;1.70;;
59930;SDS011;45790;51.538;6.736;2022-10-18T02:27:50;4.75;;;2.00;;
59930;SDS011;45790;51.538;6.736;2022-10-18T02:30:15;3.78;;;2.00;;
59930;SDS011;45790;51.538;6.736;2022-10-18T02:32:48;4.40;;;2.22;;
59930;SDS011;45790;51.538;6.736;2022-10-18T02:35:44;3.88;;;2.03;;
59930;SDS011;45790;51.538;6.736;2022-10-18T02:38:12;3.63;;;1.95;;
59930;SDS011;45790;51.538;6.736;2022-10-18T02:40:41;4.72;;;2.25;;
59930;SDS011;45790;51.538;6.736;2022-10-18T02:43:06;4.32;;;2.15;;
59930;SDS011;45790;51.538;6.736;2022-10-18T02:45:32;5.68;;;2.10;;
59930;SDS011;45790;51.538;6.736;2022-10-18T02:48:00;4.90;;;2.20;;
59930;SDS011;45790;51.538;6.736;2022-10-18T02:50:25;4.72;;;2.17;;
59930;SDS011;45790;51.538;6.736;2022-10-18T02:52:51;4.60;;;1.85;;
59930;SDS011;45790;51.538;6.736;2022-10-18T02:55:16;4.57;;;2.20;;
59930;SDS011;45790;51.538;6.736;2022-10-18T02:57:42;4.45;;;2.10;;
59930;SDS011;45790;51.538;6.736;2022-10-18T03:00:07;5.93;;;1.88;;
59930;SDS011;45790;51.538;6.736;2022-10-18T03:02:33;5.97;;;2.10;;
59930;SDS011;45790;51.538;6.736;2022-10-18T03:05:02;4.75;;;1.92;;
59930;SDS011;45790;51.538;6.736;2022-10-18T03:07:30;3.65;;;2.10;;
59930;SDS011;45790;51.538;6.736;2022-10-18T03:09:56;4.90;;;1.80;;
59930;SDS011;45790;51.538;6.736;2022-10-18T03:12:21;4.00;;;2.00;;
59930;SDS011;45790;51.538;6.736;2022-10-18T03:14:46;3.65;;;1.75;;
59930;SDS011;45790;51.538;6.736;2022-10-18T03:17:12;8.13;;;2.20;;
59930;SDS011;45790;51.538;6.736;2022-10-18T03:19:37;4.72;;;2.13;;
59930;SDS011;45790;51.538;6.736;2022-10-18T03:22:03;5.63;;;2.28;;
59930;SDS011;45790;51.538;6.736;2022-10-18T03:24:32;4.43;;;2.08;;
59930;SDS011;45790;51.538;6.736;2022-10-18T03:26:59;5.30;;;2.33;;
59930;SDS011;45790;51.538;6.736;2022-10-18T03:29:25;5.03;;;2.20;;
59930;SDS011;45790;51.538;6.736;2022-10-18T03:31:50;4.55;;;2.30;;
59930;SDS011;45790;51.538;6.736;2022-10-18T03:34:16;3.97;;;1.90;;
59930;SDS011;45790;51.538;6.736;2022-10-18T03:36:41;4.07;;;1.92;;
59930;SDS011;45790;51.538;6.736;2022-10-18T03:39:07;6.60;;;1.98;;
59930;SDS011;45790;51.538;6.736;2022-10-18T03:41:36;4.43;;;2.00;;
59930;SDS011;45790;51.538;6.736;2022-10-18T03:44:01;5.43;;;2.00;;
59930;SDS011;45790;51.538;6.736;2022-10-18T03:46:27;3.00;;;1.75;;
59930;SDS011;45790;51.538;6.736;2022-10-18T03:48:52;4.90;;;2.00;;
59930;SDS011;45790;51.538;6.736;2022-10-18T03:51:20;5.43;;;2.30;;
59930;SDS011;45790;51.538;6.736;2022-10-18T03:53:46;4.13;;;2.00;;
59930;SDS011;45790;51.538;6.736;2022-10-18T03:56:11;8.25;;;2.22;;
59930;SDS011;45790;51.538;6.736;2022-10-18T03:58:36;5.63;;;2.08;;
59930;SDS011;45790;51.538;6.736;2022-10-18T04:01:02;4.50;;;2.03;;
59930;SDS011;45790;51.538;6.736;2022-10-18T04:03:27;5.25;;;2.25;;
59930;SDS011;45790;51.538;6.736;2022-10-18T04:05:56;3.85;;;2.30;;
59930;SDS011;45790;51.538;6.736;2022-10-18T04:08:26;4.80;;;2.60;;
59930;SDS011;45790;51.538;6.736;2022-10-18T04:10:52;4.82;;;2.28;;
59930;SDS011;45790;51.538;6.736;2022-10-18T04:13:17;8.30;;;2.50;;
59930;SDS011;45790;51.538;6.736;2022-10-18T04:15:46;5.13;;;2.33;;
59930;SDS011;45790;51.538;6.736;2022-10-18T04:18:14;4.63;;;2.22;;
59930;SDS011;45790;51.538;6.736;2022-10-18T04:20:40;5.25;;;2.13;;
59930;SDS011;45790;51.538;6.736;2022-10-18T04:23:05;4.38;;;2.00;;
59930;SDS011;45790;51.538;6.736;2022-10-18T04:25:30;5.75;;;2.00;;
59930;SDS011;45790;51.538;6.736;2022-10-18T04:27:56;4.25;;;2.15;;
59930;SDS011;45790;51.538;6.736;2022-10-18T04:30:21;4.57;;;1.88;;
59930;SDS011;45790;51.538;6.736;2022-10-18T04:32:46;5.05;;;2.40;;
59930;SDS011;45790;51.538;6.736;2022-10-18T04:35:12;3.85;;;2.17;;
59930;SDS011;45790;51.538;6.736;2022-10-18T04:37:37;4.50;;;2.10;;
59930;SDS011;45790;51.538;6.736;2022-10-18T04:40:03;3.92;;;2.03;;
59930;SDS011;45790;51.538;6.736;2022-10-18T04:42:29;4.13;;;1.92;;
59930;SDS011;45790;51.538;6.736;2022-10-18T04:44:54;3.97;;;2.58;;
59930;SDS011;45790;51.538;6.736;2022-10-18T04:47:19;3.97;;;2.33;;
59930;SDS011;45790;51.538;6.736;2022-10-18T04:49:45;4.28;;;2.47;;
59930;SDS011;45790;51.538;6.736;2022-10-18T04:52:10;3.50;;;1.80;;
59930;SDS011;45790;51.538;6.736;2022-10-18T04:54:36;4.25;;;2.22;;
59930;SDS011;45790;51.538;6.736;2022-10-18T04:57:01;4.38;;;2.40;;
59930;SDS011;45790;51.538;6.736;2022-10-18T04:59:27;4.10;;;2.28;;
59930;SDS011;45790;51.538;6.736;2022-10-18T05:01:52;7.05;;;2.10;;
59930;SDS011;45790;51.538;6.736;2022-10-18T05:04:17;4.07;;;2.60;;
59930;SDS011;45790;51.538;6.736;2022-10-18T05:06:43;3.00;;;1.75;;
59930;SDS011;45790;51.538;6.736;2022-10-18T05:09:11;3.83;;;2.40;;
59930;SDS011;45790;51.538;6.736;2022-10-18T05:11:37;4.00;;;2.30;;
59930;SDS011;45790;51.538;6.736;2022-10-18T05:14:02;4.15;;;2.42;;
59930;SDS011;45790;51.538;6.736;2022-10-18T05:16:27;4.00;;;2.10;;
59930;SDS011;45790;51.538;6.736;2022-10-18T05:18:53;4.32;;;2.25;;
59930;SDS011;45790;51.538;6.736;2022-10-18T05:21:19;3.25;;;1.83;;
59930;SDS011;45790;51.538;6.736;2022-10-18T05:23:47;4.35;;;2.60;;
59930;SDS011;45790;51.538;6.736;2022-10-18T05:26:12;3.35;;;1.95;;
59930;SDS011;45790;51.538;6.736;2022-10-18T05:28:38;4.85;;;2.70;;
59930;SDS011;45790;51.538;6.736;2022-10-18T05:31:04;3.88;;;2.38;;
59930;SDS011;45790;51.538;6.736;2022-10-18T05:33:30;4.30;;;2.42;;
59930;SDS011;45790;51.538;6.736;2022-10-18T05:35:56;4.95;;;2.90;;
59930;SDS011;45790;51.538;6.736;2022-10-18T05:38:21;3.28;;;2.05;;
59930;SDS011;45790;51.538;6.736;2022-10-18T05:40:46;4.47;;;2.50;;
59930;SDS011;45790;51.538;6.736;2022-10-18T05:43:12;6.07;;;2.63;;
59930;SDS011;45790;51.538;6.736;2022-10-18T05:45:37;5.88;;;2.17;;
59930;SDS011;45790;51.538;6.736;2022-10-18T05:48:02;3.45;;;1.90;;
59930;SDS011;45790;51.538;6.736;2022-10-18T05:50:31;3.92;;;2.40;;
59930;SDS011;45790;51.538;6.736;2022-10-18T05:52:57;3.92;;;2.45;;
59930;SDS011;45790;51.538;6.736;2022-10-18T05:55:22;5.22;;;3.10;;
59930;SDS011;45790;51.538;6.736;2022-10-18T05:57:48;5.78;;;3.20;;
59930;SDS011;45790;51.538;6.736;2022-10-18T06:00:17;3.50;;;2.20;;
59930;SDS011;45790;51.538;6.736;2022-10-18T06:02:42;4.03;;;2.15;;
59930;SDS011;45790;51.538;6.736;2022-10-18T06:05:08;4.45;;;2.75;;
59930;SDS011;45790;51.538;6.736;2022-10-18T06:07:33;5.40;;;2.58;;
59930;SDS011;45790;51.538;6.736;2022-10-18T06:09:59;4.25;;;2.45;;
59930;SDS011;45790;51.538;6.736;2022-10-18T06:12:24;4.47;;;2.15;;
59930;SDS011;45790;51.538;6.736;2022-10-18T06:14:52;4.25;;;2.00;;
59930;SDS011;45790;51.538;6.736;2022-10-18T06:17:18;5.80;;;2.92;;
59930;SDS011;45790;51.538;6.736;2022-10-18T06:19:43;4.72;;;2.45;;
59930;SDS011;45790;51.538;6.736;2022-10-18T06:22:09;4.90;;;2.67;;
59930;SDS011;45790;51.538;6.736;2022-10-18T06:24:37;4.57;;;2.67;;
59930;SDS011;45790;51.538;6.736;2022-10-18T06:27:02;4.88;;;2.25;;
59930;SDS011;45790;51.538;6.736;2022-10-18T06:29:36;3.80;;;2.45;;
59930;SDS011;45790;51.538;6.736;2022-10-18T06:32:03;5.13;;;2.60;;
59930;SDS011;45790;51.538;6.736;2022-10-18T06:34:32;4.32;;;2.25;;
59930;SDS011;45790;51.538;6.736;2022-10-18T06:36:58;4.63;;;2.10;;
59930;SDS011;45790;51.538;6.736;2022-10-18T06:39:23;4.32;;;2.20;;
59930;SDS011;45790;51.538;6.736;2022-10-18T06:41:52;5.07;;;2.40;;
59930;SDS011;45790;51.538;6.736;2022-10-18T06:44:18;4.85;;;2.53;;
59930;SDS011;45790;51.538;6.736;2022-10-18T06:46:47;4.35;;;2.35;;
59930;SDS011;45790;51.538;6.736;2022-10-18T06:49:13;5.22;;;2.72;;
59930;SDS011;45790;51.538;6.736;2022-10-18T06:51:40;5.97;;;2.70;;
59930;SDS011;45790;51.538;6.736;2022-10-18T06:54:06;6.35;;;2.97;;
59930;SDS011;45790;51.538;6.736;2022-10-18T06:56:31;6.40;;;2.60;;
59930;SDS011;45790;51.538;6.736;2022-10-18T06:58:57;3.85;;;2.40;;
59930;SDS011;45790;51.538;6.736;2022-10-18T07:01:22;4.93;;;2.38;;
59930;SDS011;45790;51.538;6.736;2022-10-18T07:03:48;5.32;;;3.40;;
59930;SDS011;45790;51.538;6.736;2022-10-18T07:06:16;4.38;;;2.42;;
59930;SDS011;45790;51.538;6.736;2022-10-18T07:08:42;4.40;;;2.42;;
59930;SDS011;45790;51.538;6.736;2022-10-18T07:11:09;5.07;;;3.00;;
59930;SDS011;45790;51.538;6.736;2022-10-18T07:13:39;4.35;;;2.40;;
59930;SDS011;45790;51.538;6.736;2022-10-18T07:16:08;4.63;;;2.72;;
59930;SDS011;45790;51.538;6.736;2022-10-18T07:18:37;4.97;;;3.20;;
59930;SDS011;45790;51.538;6.736;2022-10-18T07:21:04;5.43;;;3.20;;
59930;SDS011;45790;51.538;6.736;2022-10-18T07:23:38;6.35;;;3.20;;
59930;SDS011;45790;51.538;6.736;2022-10-18T07:28:43;7.38;;;3.17;;
59930;SDS011;45790;51.538;6.736;2022-10-18T07:31:13;6.95;;;3.10;;
59930;SDS011;45790;51.538;6.736;2022-10-18T07:33:38;7.13;;;3.33;;
59930;SDS011;45790;51.538;6.736;2022-10-18T07:36:05;6.53;;;3.38;;
59930;SDS011;45790;51.538;6.736;2022-10-18T07:38:32;5.18;;;2.90;;
59930;SDS011;45790;51.538;6.736;2022-10-18T07:40:59;8.27;;;3.83;;
59930;SDS011;45790;51.538;6.736;2022-10-18T07:43:28;6.00;;;3.40;;
59930;SDS011;45790;51.538;6.736;2022-10-18T07:45:54;7.05;;;3.22;;
59930;SDS011;45790;51.538;6.736;2022-10-18T07:48:21;6.93;;;4.40;;
59930;SDS011;45790;51.538;6.736;2022-10-18T07:50:46;6.07;;;3.45;;
59930;SDS011;45790;51.538;6.736;2022-10-18T07:53:11;8.30;;;3.80;;
59930;SDS011;45790;51.538;6.736;2022-10-18T07:55:37;7.07;;;3.47;;
59930;SDS011;45790;51.538;6.736;2022-10-18T07:58:02;7.50;;;3.88;;
59930;SDS011;45790;51.538;6.736;2022-10-18T08:00:28;5.57;;;3.53;;
59930;SDS011;45790;51.538;6.736;2022-10-18T08:02:54;7.07;;;3.60;;
59930;SDS011;45790;51.538;6.736;2022-10-18T08:05:21;7.18;;;4.07;;
59930;SDS011;45790;51.538;6.736;2022-10-18T08:07:48;7.38;;;4.03;;
59930;SDS011;45790;51.538;6.736;2022-10-18T08:10:14;6.05;;;3.95;;
59930;SDS011;45790;51.538;6.736;2022-10-18T08:12:39;7.60;;;4.45;;
59930;SDS011;45790;51.538;6.736;2022-10-18T08:15:07;7.93;;;4.50;;
59930;SDS011;45790;51.538;6.736;2022-10-18T08:17:33;7.13;;;4.13;;
59930;SDS011;45790;51.538;6.736;2022-10-18T08:19:58;7.07;;;4.13;;
59930;SDS011;45790;51.538;6.736;2022-10-18T08:22:23;8.05;;;4.47;;
59930;SDS011;45790;51.538;6.736;2022-10-18T08:24:49;8.93;;;4.90;;
59930;SDS011;45790;51.538;6.736;2022-10-18T08:27:14;8.15;;;4.95;;
59930;SDS011;45790;51.538;6.736;2022-10-18T08:29:39;10.15;;;5.57;;
59930;SDS011;45790;51.538;6.736;2022-10-18T08:32:05;9.25;;;5.05;;
59930;SDS011;45790;51.538;6.736;2022-10-18T08:34:31;7.60;;;4.75;;
59930;SDS011;45790;51.538;6.736;2022-10-18T08:36:57;8.52;;;5.22;;
59930;SDS011;45790;51.538;6.736;2022-10-18T08:39:23;8.20;;;5.45;;
59930;SDS011;45790;51.538;6.736;2022-10-18T08:44:41;7.82;;;5.35;;
59930;SDS011;45790;51.538;6.736;2022-10-18T08:47:18;9.00;;;5.20;;
59930;SDS011;45790;51.538;6.736;2022-10-18T08:57:38;9.55;;;5.25;;
59930;SDS011;45790;51.538;6.736;2022-10-18T09:02:47;9.77;;;5.97;;
59930;SDS011;45790;51.538;6.736;2022-10-18T09:22:19;8.20;;;4.90;;
59930;SDS011;45790;51.538;6.736;2022-10-18T09:24:45;9.50;;;5.70;;
59930;SDS011;45790;51.538;6.736;2022-10-18T09:27:16;9.27;;;6.40;;
59930;SDS011;45790;51.538;6.736;2022-10-18T09:29:55;9.43;;;5.80;;
59930;SDS011;45790;51.538;6.736;2022-10-18T09:32:30;9.60;;;5.90;;
59930;SDS011;45790;51.538;6.736;2022-10-18T09:37:29;8.55;;;5.70;;
59930;SDS011;45790;51.538;6.736;2022-10-18T09:40:31;8.43;;;5.88;;
59930;SDS011;45790;51.538;6.736;2022-10-18T09:45:34;8.77;;;5.50;;
59930;SDS011;45790;51.538;6.736;2022-10-18T09:50:59;10.13;;;5.90;;
59930;SDS011;45790;51.538;6.736;2022-10-18T09:56:28;8.05;;;5.85;;
59930;SDS011;45790;51.538;6.736;2022-10-18T09:59:00;8.73;;;5.45;;
59930;SDS011;45790;51.538;6.736;2022-10-18T10:01:27;10.27;;;5.50;;
59930;SDS011;45790;51.538;6.736;2022-10-18T10:03:54;8.85;;;5.68;;
59930;SDS011;45790;51.538;6.736;2022-10-18T10:06:38;9.52;;;5.38;;
59930;SDS011;45790;51.538;6.736;2022-10-18T10:09:13;8.60;;;5.82;;
59930;SDS011;45790;51.538;6.736;2022-10-18T10:11:43;10.75;;;5.68;;
59930;SDS011;45790;51.538;6.736;2022-10-18T10:14:12;9.25;;;5.82;;
59930;SDS011;45790;51.538;6.736;2022-10-18T10:20:02;9.52;;;5.68;;
59930;SDS011;45790;51.538;6.736;2022-10-18T10:22:34;9.73;;;5.23;;
59930;SDS011;45790;51.538;6.736;2022-10-18T10:25:01;8.00;;;5.68;;
59930;SDS011;45790;51.538;6.736;2022-10-18T10:28:29;8.60;;;6.15;;
59930;SDS011;45790;51.538;6.736;2022-10-18T10:30:34;8.25;;;5.55;;
59930;SDS011;45790;51.538;6.736;2022-10-18T10:33:00;10.35;;;5.82;;
59930;SDS011;45790;51.538;6.736;2022-10-18T10:35:33;8.95;;;5.85;;
59930;SDS011;45790;51.538;6.736;2022-10-18T10:38:00;10.82;;;5.97;;
59930;SDS011;45790;51.538;6.736;2022-10-18T10:40:30;10.90;;;6.13;;
59930;SDS011;45790;51.538;6.736;2022-10-18T10:45:40;10.52;;;6.07;;
59930;SDS011;45790;51.538;6.736;2022-10-18T10:48:19;9.85;;;5.65;;
59930;SDS011;45790;51.538;6.736;2022-10-18T10:51:05;8.10;;;4.88;;
59930;SDS011;45790;51.538;6.736;2022-10-18T10:53:36;8.43;;;5.22;;
59930;SDS011;45790;51.538;6.736;2022-10-18T10:56:05;9.25;;;5.40;;
59930;SDS011;45790;51.538;6.736;2022-10-18T10:58:38;10.68;;;5.97;;
59930;SDS011;45790;51.538;6.736;2022-10-18T11:01:24;8.90;;;5.70;;
59930;SDS011;45790;51.538;6.736;2022-10-18T11:03:58;8.27;;;5.10;;
59930;SDS011;45790;51.538;6.736;2022-10-18T11:06:33;8.55;;;5.50;;
59930;SDS011;45790;51.538;6.736;2022-10-18T11:09:03;10.43;;;5.07;;
59930;SDS011;45790;51.538;6.736;2022-10-18T11:11:35;6.20;;;4.30;;
59930;SDS011;45790;51.538;6.736;2022-10-18T11:14:12;10.13;;;4.95;;
59930;SDS011;45790;51.538;6.736;2022-10-18T11:16:50;7.45;;;5.30;;
59930;SDS011;45790;51.538;6.736;2022-10-18T11:22:12;9.38;;;5.70;;
59930;SDS011;45790;51.538;6.736;2022-10-18T11:24:42;9.15;;;5.07;;
59930;SDS011;45790;51.538;6.736;2022-10-18T11:33:00;10.43;;;5.22;;
59930;SDS011;45790;51.538;6.736;2022-10-18T11:35:50;9.93;;;5.07;;
59930;SDS011;45790;51.538;6.736;2022-10-18T11:49:17;7.60;;;4.53;;
59930;SDS011;45790;51.538;6.736;2022-10-18T11:52:02;9.82;;;5.20;;
59930;SDS011;45790;51.538;6.736;2022-10-18T12:05:08;10.43;;;4.90;;
59930;SDS011;45790;51.538;6.736;2022-10-18T12:07:42;10.68;;;5.03;;
59930;SDS011;45790;51.538;6.736;2022-10-18T12:10:26;7.38;;;4.07;;
59930;SDS011;45790;51.538;6.736;2022-10-18T12:12:58;9.40;;;4.32;;
59930;SDS011;45790;51.538;6.736;2022-10-18T12:15:26;8.05;;;4.22;;
59930;SDS011;45790;51.538;6.736;2022-10-18T12:17:54;8.52;;;4.57;;
59930;SDS011;45790;51.538;6.736;2022-10-18T12:20:26;9.05;;;4.95;;
59930;SDS011;45790;51.538;6.736;2022-10-18T12:23:12;10.73;;;5.20;;
59930;SDS011;45790;51.538;6.736;2022-10-18T12:25:41;10.02;;;5.25;;
59930;SDS011;45790;51.538;6.736;2022-10-18T12:28:15;12.15;;;5.00;;
59930;SDS011;45790;51.538;6.736;2022-10-18T12:33:43;10.45;;;4.60;;
59930;SDS011;45790;51.538;6.736;2022-10-18T12:38:52;9.30;;;4.72;;
59930;SDS011;45790;51.538;6.736;2022-10-18T12:41:19;8.73;;;4.90;;
59930;SDS011;45790;51.538;6.736;2022-10-18T12:44:23;11.98;;;4.45;;
59930;SDS011;45790;51.538;6.736;2022-10-18T12:46:53;9.15;;;4.68;;
59930;SDS011;45790;51.538;6.736;2022-10-18T12:49:23;8.65;;;4.70;;
59930;SDS011;45790;51.538;6.736;2022-10-18T12:51:54;12.35;;;4.97;;
59930;SDS011;45790;51.538;6.736;2022-10-18T12:54:37;11.57;;;4.82;;
59930;SDS011;45790;51.538;6.736;2022-10-18T12:57:16;11.45;;;4.95;;
59930;SDS011;45790;51.538;6.736;2022-10-18T12:59:47;10.05;;;4.55;;
59930;SDS011;45790;51.538;6.736;2022-10-18T13:02:19;9.10;;;3.97;;
59930;SDS011;45790;51.538;6.736;2022-10-18T13:04:47;8.15;;;3.65;;
59930;SDS011;45790;51.538;6.736;2022-10-18T13:09:39;11.02;;;3.88;;
59930;SDS011;45790;51.538;6.736;2022-10-18T13:22:30;6.63;;;3.40;;
59930;SDS011;45790;51.538;6.736;2022-10-18T13:25:30;8.35;;;3.88;;
59930;SDS011;45790;51.538;6.736;2022-10-18T13:28:24;8.95;;;3.58;;
59930;SDS011;45790;51.538;6.736;2022-10-18T13:33:38;10.02;;;3.60;;
59930;SDS011;45790;51.538;6.736;2022-10-18T13:41:22;9.82;;;3.30;;
59930;SDS011;45790;51.538;6.736;2022-10-18T13:48:58;7.85;;;3.22;;
59930;SDS011;45790;51.538;6.736;2022-10-18T14:02:28;9.55;;;2.67;;
59930;SDS011;45790;51.538;6.736;2022-10-18T14:08:10;8.80;;;2.50;;
59930;SDS011;45790;51.538;6.736;2022-10-18T14:13:44;8.15;;;2.22;;
59930;SDS011;45790;51.538;6.736;2022-10-18T14:19:15;9.50;;;2.58;;
59930;SDS011;45790;51.538;6.736;2022-10-18T14:21:52;5.78;;;2.30;;
59930;SDS011;45790;51.538;6.736;2022-10-18T14:24:23;7.97;;;2.45;;
59930;SDS011;45790;51.538;6.736;2022-10-18T14:29:48;7.38;;;2.13;;
59930;SDS011;45790;51.538;6.736;2022-10-18T14:34:50;6.43;;;1.92;;
59930;SDS011;45790;51.538;6.736;2022-10-18T14:37:26;5.85;;;2.40;;
59930;SDS011;45790;51.538;6.736;2022-10-18T14:39:53;6.95;;;2.30;;
59930;SDS011;45790;51.538;6.736;2022-10-18T14:42:22;6.68;;;2.25;;
59930;SDS011;45790;51.538;6.736;2022-10-18T14:44:48;6.55;;;2.33;;
59930;SDS011;45790;51.538;6.736;2022-10-18T14:47:25;4.63;;;2.08;;
59930;SDS011;45790;51.538;6.736;2022-10-18T14:50:00;5.70;;;2.13;;
59930;SDS011;45790;51.538;6.736;2022-10-18T14:52:41;4.65;;;2.15;;
59930;SDS011;45790;51.538;6.736;2022-10-18T14:55:11;5.95;;;2.03;;
59930;SDS011;45790;51.538;6.736;2022-10-18T14:57:45;5.90;;;1.77;;
59930;SDS011;45790;51.538;6.736;2022-10-18T15:00:17;3.65;;;1.58;;
59930;SDS011;45790;51.538;6.736;2022-10-18T15:02:54;5.53;;;2.13;;
59930;SDS011;45790;51.538;6.736;2022-10-18T15:05:23;4.22;;;1.88;;
59930;SDS011;45790;51.538;6.736;2022-10-18T15:07:49;5.35;;;2.03;;
59930;SDS011;45790;51.538;6.736;2022-10-18T15:10:17;4.28;;;2.00;;
59930;SDS011;45790;51.538;6.736;2022-10-18T15:12:47;5.10;;;1.65;;
59930;SDS011;45790;51.538;6.736;2022-10-18T15:15:16;5.88;;;1.85;;
59930;SDS011;45790;51.538;6.736;2022-10-18T15:17:44;4.93;;;1.90;;
59930;SDS011;45790;51.538;6.736;2022-10-18T15:20:26;3.50;;;1.48;;
59930;SDS011;45790;51.538;6.736;2022-10-18T15:23:03;5.30;;;1.77;;
59930;SDS011;45790;51.538;6.736;2022-10-18T15:25:50;4.40;;;1.77;;
59930;SDS011;45790;51.538;6.736;2022-10-18T15:28:26;2.58;;;1.70;;
59930;SDS011;45790;51.538;6.736;2022-10-18T15:30:54;5.20;;;1.80;;
59930;SDS011;45790;51.538;6.736;2022-10-18T15:33:22;5.57;;;1.90;;
59930;SDS011;45790;51.538;6.736;2022-10-18T15:35:49;3.78;;;1.55;;
59930;SDS011;45790;51.538;6.736;2022-10-18T15:38:23;4.15;;;1.70;;
59930;SDS011;45790;51.538;6.736;2022-10-18T15:40:52;4.75;;;1.60;;
59930;SDS011;45790;51.538;6.736;2022-10-18T15:45:52;4.90;;;1.73;;
59930;SDS011;45790;51.538;6.736;2022-10-18T15:50:55;3.13;;;1.42;;
59930;SDS011;45790;51.538;6.736;2022-10-18T15:56:11;3.00;;;1.55;;
59930;SDS011;45790;51.538;6.736;2022-10-18T15:58:42;2.60;;;1.30;;
59930;SDS011;45790;51.538;6.736;2022-10-18T16:01:16;3.70;;;1.63;;
59930;SDS011;45790;51.538;6.736;2022-10-18T16:03:49;3.72;;;1.40;;
59930;SDS011;45790;51.538;6.736;2022-10-18T16:06:15;3.40;;;1.38;;
59930;SDS011;45790;51.538;6.736;2022-10-18T16:08:42;3.47;;;1.30;;
59930;SDS011;45790;51.538;6.736;2022-10-18T16:13:43;3.22;;;1.30;;
59930;SDS011;45790;51.538;6.736;2022-10-18T16:16:10;2.92;;;1.38;;
59930;SDS011;45790;51.538;6.736;2022-10-18T16:18:41;4.13;;;1.38;;
59930;SDS011;45790;51.538;6.736;2022-10-18T16:21:12;4.50;;;1.30;;
59930;SDS011;45790;51.538;6.736;2022-10-18T16:23:56;6.40;;;1.42;;
59930;SDS011;45790;51.538;6.736;2022-10-18T16:26:24;3.40;;;1.25;;
59930;SDS011;45790;51.538;6.736;2022-10-18T16:28:50;4.95;;;1.33;;
59930;SDS011;45790;51.538;6.736;2022-10-18T16:31:19;4.35;;;1.20;;
59930;SDS011;45790;51.538;6.736;2022-10-18T16:33:49;4.35;;;1.13;;
59930;SDS011;45790;51.538;6.736;2022-10-18T16:36:16;4.25;;;1.40;;
59930;SDS011;45790;51.538;6.736;2022-10-18T16:38:42;4.18;;;1.00;;
59930;SDS011;45790;51.538;6.736;2022-10-18T16:41:08;2.88;;;1.17;;
59930;SDS011;45790;51.538;6.736;2022-10-18T16:43:34;4.50;;;1.50;;
59930;SDS011;45790;51.538;6.736;2022-10-18T16:46:01;5.82;;;1.67;;
59930;SDS011;45790;51.538;6.736;2022-10-18T16:48:27;4.25;;;1.35;;
59930;SDS011;45790;51.538;6.736;2022-10-18T16:50:53;6.22;;;1.20;;
59930;SDS011;45790;51.538;6.736;2022-10-18T16:53:25;2.65;;;1.15;;
59930;SDS011;45790;51.538;6.736;2022-10-18T16:55:52;4.22;;;1.23;;
59930;SDS011;45790;51.538;6.736;2022-10-18T16:58:24;5.00;;;1.00;;
59930;SDS011;45790;51.538;6.736;2022-10-18T17:00:51;4.13;;;1.20;;
59930;SDS011;45790;51.538;6.736;2022-10-18T17:03:19;3.60;;;1.30;;
59930;SDS011;45790;51.538;6.736;2022-10-18T17:05:44;7.63;;;1.58;;
59930;SDS011;45790;51.538;6.736;2022-10-18T17:08:20;4.78;;;1.50;;
59930;SDS011;45790;51.538;6.736;2022-10-18T17:10:47;7.30;;;1.65;;
59930;SDS011;45790;51.538;6.736;2022-10-18T17:13:14;4.15;;;1.52;;
59930;SDS011;45790;51.538;6.736;2022-10-18T17:15:41;2.00;;;1.10;;
59930;SDS011;45790;51.538;6.736;2022-10-18T17:18:12;6.40;;;1.80;;
59930;SDS011;45790;51.538;6.736;2022-10-18T17:20:44;6.95;;;1.65;;
59930;SDS011;45790;51.538;6.736;2022-10-18T17:23:10;6.32;;;1.60;;
59930;SDS011;45790;51.538;6.736;2022-10-18T17:25:42;7.20;;;2.10;;
59930;SDS011;45790;51.538;6.736;2022-10-18T17:28:12;7.30;;;2.28;;
59930;SDS011;45790;51.538;6.736;2022-10-18T17:30:39;6.53;;;2.00;;
59930;SDS011;45790;51.538;6.736;2022-10-18T17:33:05;6.50;;;2.10;;
59930;SDS011;45790;51.538;6.736;2022-10-18T17:35:31;6.68;;;2.00;;
59930;SDS011;45790;51.538;6.736;2022-10-18T17:37:56;8.45;;;2.38;;
59930;SDS011;45790;51.538;6.736;2022-10-18T17:40:22;7.85;;;2.55;;
59930;SDS011;45790;51.538;6.736;2022-10-18T17:42:51;11.23;;;2.47;;
59930;SDS011;45790;51.538;6.736;2022-10-18T17:45:17;8.93;;;2.60;;
59930;SDS011;45790;51.538;6.736;2022-10-18T17:47:46;7.70;;;2.42;;
59930;SDS011;45790;51.538;6.736;2022-10-18T17:50:12;10.02;;;2.47;;
59930;SDS011;45790;51.538;6.736;2022-10-18T17:52:41;5.80;;;2.38;;
59930;SDS011;45790;51.538;6.736;2022-10-18T17:55:08;8.02;;;2.38;;